sensor_id;sensor_type;location;lat;lon;timestamp;P1;durP1;ratioP1;P2;durP2;ratioP2
10801;SDS011;5453;50.852;7.102;2023-03-01T00:00:14;9.05;;;4.03;;
10801;SDS011;5453;50.852;7.102;2023-03-01T00:02:46;8.73;;;4.15;;
10801;SDS011;5453;50.852;7.102;2023-03-01T00:05:18;10.50;;;3.60;;
10801;SDS011;5453;50.852;7.102;2023-03-01T00:07:52;9.13;;;3.90;;
10801;SDS011;5453;50.852;7.102;2023-03-01T00:10:25;8.85;;;3.92;;
10801;SDS011;5453;50.852;7.102;2023-03-01T00:12:57;5.82;;;3.75;;
10801;SDS011;5453;50.852;7.102;2023-03-01T00:15:29;10.15;;;4.15;;
10801;SDS011;5453;50.852;7.102;2023-03-01T00:18:01;8.93;;;4.25;;
10801;SDS011;5453;50.852;7.102;2023-03-01T00:20:34;7.80;;;4.05;;
10801;SDS011;5453;50.852;7.102;2023-03-01T00:23:06;12.07;;;4.50;;
10801;SDS011;5453;50.852;7.102;2023-03-01T00:25:42;10.50;;;4.90;;
10801;SDS011;5453;50.852;7.102;2023-03-01T00:28:14;9.65;;;4.45;;
10801;SDS011;5453;50.852;7.102;2023-03-01T00:30:46;9.18;;;4.85;;
10801;SDS011;5453;50.852;7.102;2023-03-01T00:33:19;9.43;;;3.90;;
10801;SDS011;5453;50.852;7.102;2023-03-01T00:35:51;10.30;;;4.40;;
10801;SDS011;5453;50.852;7.102;2023-03-01T00:38:23;6.95;;;3.85;;
10801;SDS011;5453;50.852;7.102;2023-03-01T00:41:03;7.22;;;3.53;;
10801;SDS011;5453;50.852;7.102;2023-03-01T00:43:36;8.85;;;3.53;;
10801;SDS011;5453;50.852;7.102;2023-03-01T00:46:09;12.60;;;4.45;;
10801;SDS011;5453;50.852;7.102;2023-03-01T00:48:45;8.35;;;3.85;;
10801;SDS011;5453;50.852;7.102;2023-03-01T00:51:19;11.20;;;4.70;;
10801;SDS011;5453;50.852;7.102;2023-03-01T00:53:53;6.78;;;3.15;;
10801;SDS011;5453;50.852;7.102;2023-03-01T00:56:29;7.35;;;3.67;;
10801;SDS011;5453;50.852;7.102;2023-03-01T00:59:02;6.95;;;3.20;;
10801;SDS011;5453;50.852;7.102;2023-03-01T01:01:34;9.23;;;3.80;;
10801;SDS011;5453;50.852;7.102;2023-03-01T01:04:06;8.25;;;3.70;;
10801;SDS011;5453;50.852;7.102;2023-03-01T01:06:42;7.38;;;3.78;;
10801;SDS011;5453;50.852;7.102;2023-03-01T01:11:50;7.65;;;3.45;;
10801;SDS011;5453;50.852;7.102;2023-03-01T01:14:23;8.45;;;3.55;;
10801;SDS011;5453;50.852;7.102;2023-03-01T01:16:55;7.25;;;3.70;;
10801;SDS011;5453;50.852;7.102;2023-03-01T01:19:27;8.52;;;4.10;;
10801;SDS011;5453;50.852;7.102;2023-03-01T01:22:00;8.45;;;3.47;;
10801;SDS011;5453;50.852;7.102;2023-03-01T01:24:32;9.32;;;4.18;;
10801;SDS011;5453;50.852;7.102;2023-03-01T01:27:05;6.57;;;3.40;;
10801;SDS011;5453;50.852;7.102;2023-03-01T01:29:37;10.07;;;4.35;;
10801;SDS011;5453;50.852;7.102;2023-03-01T01:32:10;9.55;;;4.50;;
10801;SDS011;5453;50.852;7.102;2023-03-01T01:34:42;7.55;;;3.40;;
10801;SDS011;5453;50.852;7.102;2023-03-01T01:37:14;9.13;;;3.50;;
10801;SDS011;5453;50.852;7.102;2023-03-01T01:39:46;8.10;;;3.42;;
10801;SDS011;5453;50.852;7.102;2023-03-01T01:42:19;8.20;;;3.83;;
10801;SDS011;5453;50.852;7.102;2023-03-01T01:47:59;7.82;;;3.42;;
10801;SDS011;5453;50.852;7.102;2023-03-01T01:50:36;9.00;;;3.47;;
10801;SDS011;5453;50.852;7.102;2023-03-01T01:53:12;6.10;;;3.58;;
10801;SDS011;5453;50.852;7.102;2023-03-01T01:55:49;8.63;;;3.80;;
10801;SDS011;5453;50.852;7.102;2023-03-01T01:58:28;7.78;;;3.42;;
10801;SDS011;5453;50.852;7.102;2023-03-01T02:01:01;8.15;;;3.70;;
10801;SDS011;5453;50.852;7.102;2023-03-01T02:03:36;8.18;;;3.30;;
10801;SDS011;5453;50.852;7.102;2023-03-01T02:06:13;9.65;;;3.83;;
10801;SDS011;5453;50.852;7.102;2023-03-01T02:08:52;9.20;;;4.20;;
10801;SDS011;5453;50.852;7.102;2023-03-01T02:11:24;8.75;;;3.70;;
10801;SDS011;5453;50.852;7.102;2023-03-01T02:14:00;7.93;;;4.93;;
10801;SDS011;5453;50.852;7.102;2023-03-01T02:16:32;9.55;;;3.70;;
10801;SDS011;5453;50.852;7.102;2023-03-01T02:19:05;8.88;;;3.90;;
10801;SDS011;5453;50.852;7.102;2023-03-01T02:21:42;6.63;;;3.22;;
10801;SDS011;5453;50.852;7.102;2023-03-01T02:24:27;9.98;;;4.15;;
10801;SDS011;5453;50.852;7.102;2023-03-01T02:27:08;8.63;;;3.95;;
10801;SDS011;5453;50.852;7.102;2023-03-01T02:29:43;8.75;;;3.90;;
10801;SDS011;5453;50.852;7.102;2023-03-01T02:32:15;8.50;;;3.83;;
10801;SDS011;5453;50.852;7.102;2023-03-01T02:34:55;9.82;;;3.95;;
10801;SDS011;5453;50.852;7.102;2023-03-01T02:37:27;8.30;;;3.97;;
10801;SDS011;5453;50.852;7.102;2023-03-01T02:40:01;7.25;;;3.45;;
10801;SDS011;5453;50.852;7.102;2023-03-01T02:42:43;9.20;;;3.42;;
10801;SDS011;5453;50.852;7.102;2023-03-01T02:45:24;8.13;;;3.50;;
10801;SDS011;5453;50.852;7.102;2023-03-01T02:47:58;8.43;;;3.03;;
10801;SDS011;5453;50.852;7.102;2023-03-01T02:50:41;7.50;;;3.63;;
10801;SDS011;5453;50.852;7.102;2023-03-01T02:53:27;7.35;;;3.33;;
10801;SDS011;5453;50.852;7.102;2023-03-01T02:56:07;7.70;;;3.10;;
10801;SDS011;5453;50.852;7.102;2023-03-01T02:58:43;8.48;;;3.55;;
10801;SDS011;5453;50.852;7.102;2023-03-01T03:01:22;9.02;;;3.90;;
10801;SDS011;5453;50.852;7.102;2023-03-01T03:04:10;5.60;;;3.08;;
10801;SDS011;5453;50.852;7.102;2023-03-01T03:06:48;8.15;;;3.30;;
10801;SDS011;5453;50.852;7.102;2023-03-01T03:09:22;6.90;;;3.50;;
10801;SDS011;5453;50.852;7.102;2023-03-01T03:11:54;7.10;;;3.55;;
10801;SDS011;5453;50.852;7.102;2023-03-01T03:14:26;6.95;;;2.92;;
10801;SDS011;5453;50.852;7.102;2023-03-01T03:17:02;8.20;;;4.03;;
10801;SDS011;5453;50.852;7.102;2023-03-01T03:19:36;9.85;;;4.10;;
10801;SDS011;5453;50.852;7.102;2023-03-01T03:22:08;7.43;;;3.30;;
10801;SDS011;5453;50.852;7.102;2023-03-01T03:24:40;7.53;;;3.30;;
10801;SDS011;5453;50.852;7.102;2023-03-01T03:27:12;7.50;;;3.38;;
10801;SDS011;5453;50.852;7.102;2023-03-01T03:29:45;8.00;;;4.35;;
10801;SDS011;5453;50.852;7.102;2023-03-01T03:32:18;7.20;;;3.22;;
10801;SDS011;5453;50.852;7.102;2023-03-01T03:34:50;8.65;;;3.55;;
10801;SDS011;5453;50.852;7.102;2023-03-01T03:37:22;7.75;;;3.70;;
10801;SDS011;5453;50.852;7.102;2023-03-01T03:42:49;6.57;;;3.05;;
10801;SDS011;5453;50.852;7.102;2023-03-01T03:45:21;8.60;;;4.20;;
10801;SDS011;5453;50.852;7.102;2023-03-01T03:47:57;8.32;;;3.53;;
10801;SDS011;5453;50.852;7.102;2023-03-01T03:50:29;10.60;;;4.13;;
10801;SDS011;5453;50.852;7.102;2023-03-01T03:53:01;7.30;;;3.55;;
10801;SDS011;5453;50.852;7.102;2023-03-01T03:55:35;8.80;;;3.60;;
10801;SDS011;5453;50.852;7.102;2023-03-01T03:58:09;10.25;;;3.85;;
10801;SDS011;5453;50.852;7.102;2023-03-01T04:00:43;7.97;;;3.70;;
10801;SDS011;5453;50.852;7.102;2023-03-01T04:03:19;9.38;;;3.95;;
10801;SDS011;5453;50.852;7.102;2023-03-01T04:05:52;10.80;;;3.47;;
10801;SDS011;5453;50.852;7.102;2023-03-01T04:08:25;9.75;;;3.80;;
10801;SDS011;5453;50.852;7.102;2023-03-01T04:10:58;8.55;;;3.80;;
10801;SDS011;5453;50.852;7.102;2023-03-01T04:13:54;8.55;;;4.20;;
10801;SDS011;5453;50.852;7.102;2023-03-01T04:19:02;6.80;;;3.13;;
10801;SDS011;5453;50.852;7.102;2023-03-01T04:21:36;8.32;;;3.83;;
10801;SDS011;5453;50.852;7.102;2023-03-01T04:24:09;9.60;;;3.80;;
10801;SDS011;5453;50.852;7.102;2023-03-01T04:26:42;9.00;;;3.28;;
10801;SDS011;5453;50.852;7.102;2023-03-01T04:29:14;7.60;;;3.53;;
10801;SDS011;5453;50.852;7.102;2023-03-01T04:31:47;10.07;;;3.92;;
10801;SDS011;5453;50.852;7.102;2023-03-01T04:34:21;8.05;;;3.42;;
10801;SDS011;5453;50.852;7.102;2023-03-01T04:36:53;12.50;;;3.97;;
10801;SDS011;5453;50.852;7.102;2023-03-01T04:39:25;8.77;;;3.70;;
10801;SDS011;5453;50.852;7.102;2023-03-01T04:41:58;8.63;;;4.22;;
10801;SDS011;5453;50.852;7.102;2023-03-01T04:44:31;10.45;;;3.40;;
10801;SDS011;5453;50.852;7.102;2023-03-01T04:47:03;8.50;;;3.55;;
10801;SDS011;5453;50.852;7.102;2023-03-01T04:49:37;7.53;;;3.53;;
10801;SDS011;5453;50.852;7.102;2023-03-01T04:52:09;8.52;;;3.88;;
10801;SDS011;5453;50.852;7.102;2023-03-01T04:54:41;9.07;;;4.03;;
10801;SDS011;5453;50.852;7.102;2023-03-01T04:57:13;8.50;;;3.33;;
10801;SDS011;5453;50.852;7.102;2023-03-01T04:59:45;9.07;;;3.83;;
10801;SDS011;5453;50.852;7.102;2023-03-01T05:02:17;8.00;;;3.40;;
10801;SDS011;5453;50.852;7.102;2023-03-01T05:04:51;8.10;;;3.50;;
10801;SDS011;5453;50.852;7.102;2023-03-01T05:07:27;7.32;;;3.30;;
10801;SDS011;5453;50.852;7.102;2023-03-01T05:09:59;7.47;;;3.20;;
10801;SDS011;5453;50.852;7.102;2023-03-01T05:12:31;9.40;;;3.72;;
10801;SDS011;5453;50.852;7.102;2023-03-01T05:15:04;7.22;;;3.22;;
10801;SDS011;5453;50.852;7.102;2023-03-01T05:17:38;8.77;;;3.38;;
10801;SDS011;5453;50.852;7.102;2023-03-01T05:20:11;8.52;;;3.80;;
10801;SDS011;5453;50.852;7.102;2023-03-01T05:22:44;9.20;;;4.32;;
10801;SDS011;5453;50.852;7.102;2023-03-01T05:25:16;9.93;;;3.10;;
10801;SDS011;5453;50.852;7.102;2023-03-01T05:27:48;7.88;;;3.95;;
10801;SDS011;5453;50.852;7.102;2023-03-01T05:30:20;10.60;;;4.03;;
10801;SDS011;5453;50.852;7.102;2023-03-01T05:32:52;10.00;;;4.00;;
10801;SDS011;5453;50.852;7.102;2023-03-01T05:35:28;8.32;;;4.03;;
10801;SDS011;5453;50.852;7.102;2023-03-01T05:38:02;8.18;;;3.72;;
10801;SDS011;5453;50.852;7.102;2023-03-01T05:40:34;10.00;;;3.97;;
10801;SDS011;5453;50.852;7.102;2023-03-01T05:43:07;7.40;;;3.55;;
10801;SDS011;5453;50.852;7.102;2023-03-01T05:45:40;8.57;;;4.07;;
10801;SDS011;5453;50.852;7.102;2023-03-01T05:48:13;7.40;;;3.70;;
10801;SDS011;5453;50.852;7.102;2023-03-01T05:50:47;11.13;;;4.10;;
10801;SDS011;5453;50.852;7.102;2023-03-01T05:53:19;10.63;;;5.15;;
10801;SDS011;5453;50.852;7.102;2023-03-01T05:55:51;11.80;;;5.30;;
10801;SDS011;5453;50.852;7.102;2023-03-01T05:58:24;10.52;;;5.00;;
10801;SDS011;5453;50.852;7.102;2023-03-01T06:00:57;12.13;;;5.13;;
10801;SDS011;5453;50.852;7.102;2023-03-01T06:03:30;12.05;;;4.65;;
10801;SDS011;5453;50.852;7.102;2023-03-01T06:06:03;14.15;;;5.32;;
10801;SDS011;5453;50.852;7.102;2023-03-01T06:08:36;11.05;;;4.57;;
10801;SDS011;5453;50.852;7.102;2023-03-01T06:11:08;8.82;;;3.70;;
10801;SDS011;5453;50.852;7.102;2023-03-01T06:13:40;12.20;;;5.15;;
10801;SDS011;5453;50.852;7.102;2023-03-01T06:16:14;11.75;;;4.30;;
10801;SDS011;5453;50.852;7.102;2023-03-01T06:18:46;11.48;;;3.97;;
10801;SDS011;5453;50.852;7.102;2023-03-01T06:21:20;7.38;;;3.80;;
10801;SDS011;5453;50.852;7.102;2023-03-01T06:23:52;8.07;;;4.10;;
10801;SDS011;5453;50.852;7.102;2023-03-01T06:26:24;6.55;;;3.17;;
10801;SDS011;5453;50.852;7.102;2023-03-01T06:28:56;7.85;;;3.60;;
10801;SDS011;5453;50.852;7.102;2023-03-01T06:31:28;6.13;;;3.17;;
10801;SDS011;5453;50.852;7.102;2023-03-01T06:34:01;11.88;;;4.20;;
10801;SDS011;5453;50.852;7.102;2023-03-01T06:36:35;9.02;;;4.10;;
10801;SDS011;5453;50.852;7.102;2023-03-01T06:39:07;10.45;;;4.00;;
10801;SDS011;5453;50.852;7.102;2023-03-01T06:41:39;11.13;;;3.85;;
10801;SDS011;5453;50.852;7.102;2023-03-01T06:44:11;13.32;;;4.13;;
10801;SDS011;5453;50.852;7.102;2023-03-01T06:46:43;10.65;;;4.00;;
10801;SDS011;5453;50.852;7.102;2023-03-01T06:49:15;12.40;;;4.22;;
10801;SDS011;5453;50.852;7.102;2023-03-01T06:51:49;8.10;;;3.88;;
10801;SDS011;5453;50.852;7.102;2023-03-01T06:54:21;10.95;;;4.63;;
10801;SDS011;5453;50.852;7.102;2023-03-01T06:56:53;10.30;;;4.32;;
10801;SDS011;5453;50.852;7.102;2023-03-01T06:59:25;11.35;;;3.97;;
10801;SDS011;5453;50.852;7.102;2023-03-01T07:01:58;13.00;;;4.55;;
10801;SDS011;5453;50.852;7.102;2023-03-01T07:04:30;10.10;;;3.90;;
10801;SDS011;5453;50.852;7.102;2023-03-01T07:07:03;10.77;;;4.72;;
10801;SDS011;5453;50.852;7.102;2023-03-01T07:09:36;11.57;;;4.97;;
10801;SDS011;5453;50.852;7.102;2023-03-01T07:12:08;10.63;;;4.18;;
10801;SDS011;5453;50.852;7.102;2023-03-01T07:14:40;11.38;;;4.82;;
10801;SDS011;5453;50.852;7.102;2023-03-01T07:17:12;13.98;;;5.85;;
10801;SDS011;5453;50.852;7.102;2023-03-01T07:19:44;18.75;;;6.78;;
10801;SDS011;5453;50.852;7.102;2023-03-01T07:22:18;21.42;;;7.60;;
10801;SDS011;5453;50.852;7.102;2023-03-01T07:24:50;17.35;;;6.60;;
10801;SDS011;5453;50.852;7.102;2023-03-01T07:27:22;15.05;;;5.93;;
10801;SDS011;5453;50.852;7.102;2023-03-01T07:29:54;10.48;;;5.57;;
10801;SDS011;5453;50.852;7.102;2023-03-01T07:32:26;10.98;;;5.65;;
10801;SDS011;5453;50.852;7.102;2023-03-01T07:34:58;11.30;;;5.22;;
10801;SDS011;5453;50.852;7.102;2023-03-01T07:37:32;12.30;;;5.25;;
10801;SDS011;5453;50.852;7.102;2023-03-01T07:40:04;12.13;;;5.15;;
10801;SDS011;5453;50.852;7.102;2023-03-01T07:42:38;10.25;;;5.07;;
10801;SDS011;5453;50.852;7.102;2023-03-01T07:45:10;10.82;;;4.97;;
10801;SDS011;5453;50.852;7.102;2023-03-01T07:47:43;12.35;;;5.50;;
10801;SDS011;5453;50.852;7.102;2023-03-01T07:50:15;16.85;;;6.18;;
10801;SDS011;5453;50.852;7.102;2023-03-01T07:52:49;17.60;;;7.13;;
10801;SDS011;5453;50.852;7.102;2023-03-01T07:55:21;15.02;;;6.75;;
10801;SDS011;5453;50.852;7.102;2023-03-01T07:57:53;14.73;;;6.28;;
10801;SDS011;5453;50.852;7.102;2023-03-01T08:00:25;12.80;;;5.55;;
10801;SDS011;5453;50.852;7.102;2023-03-01T08:02:58;11.52;;;4.78;;
10801;SDS011;5453;50.852;7.102;2023-03-01T08:05:31;13.32;;;5.60;;
10801;SDS011;5453;50.852;7.102;2023-03-01T08:08:05;11.50;;;5.30;;
10801;SDS011;5453;50.852;7.102;2023-03-01T08:10:37;11.75;;;5.40;;
10801;SDS011;5453;50.852;7.102;2023-03-01T08:13:09;13.90;;;6.00;;
10801;SDS011;5453;50.852;7.102;2023-03-01T08:15:41;13.20;;;5.30;;
10801;SDS011;5453;50.852;7.102;2023-03-01T08:18:13;12.95;;;6.07;;
10801;SDS011;5453;50.852;7.102;2023-03-01T08:20:45;11.63;;;5.20;;
10801;SDS011;5453;50.852;7.102;2023-03-01T08:23:19;15.90;;;6.35;;
10801;SDS011;5453;50.852;7.102;2023-03-01T08:25:51;13.65;;;6.60;;
10801;SDS011;5453;50.852;7.102;2023-03-01T08:28:24;14.45;;;6.35;;
10801;SDS011;5453;50.852;7.102;2023-03-01T08:30:56;12.43;;;6.10;;
10801;SDS011;5453;50.852;7.102;2023-03-01T08:33:28;12.93;;;6.00;;
10801;SDS011;5453;50.852;7.102;2023-03-01T08:36:04;12.73;;;5.30;;
10801;SDS011;5453;50.852;7.102;2023-03-01T08:38:38;12.43;;;6.03;;
10801;SDS011;5453;50.852;7.102;2023-03-01T08:41:10;13.13;;;6.13;;
10801;SDS011;5453;50.852;7.102;2023-03-01T08:43:42;11.73;;;5.93;;
10801;SDS011;5453;50.852;7.102;2023-03-01T08:46:14;12.68;;;5.70;;
10801;SDS011;5453;50.852;7.102;2023-03-01T08:48:46;12.57;;;6.13;;
10801;SDS011;5453;50.852;7.102;2023-03-01T08:51:19;14.15;;;6.80;;
10801;SDS011;5453;50.852;7.102;2023-03-01T08:53:54;11.43;;;6.72;;
10801;SDS011;5453;50.852;7.102;2023-03-01T08:56:26;12.50;;;5.93;;
10801;SDS011;5453;50.852;7.102;2023-03-01T08:58:58;11.50;;;5.45;;
10801;SDS011;5453;50.852;7.102;2023-03-01T09:01:30;11.90;;;5.78;;
10801;SDS011;5453;50.852;7.102;2023-03-01T09:04:02;11.77;;;6.00;;
10801;SDS011;5453;50.852;7.102;2023-03-01T09:06:35;10.73;;;5.60;;
10801;SDS011;5453;50.852;7.102;2023-03-01T09:09:12;10.35;;;5.55;;
10801;SDS011;5453;50.852;7.102;2023-03-01T09:11:46;11.45;;;6.43;;
10801;SDS011;5453;50.852;7.102;2023-03-01T09:14:20;14.90;;;6.00;;
10801;SDS011;5453;50.852;7.102;2023-03-01T09:16:52;11.82;;;6.72;;
10801;SDS011;5453;50.852;7.102;2023-03-01T09:19:24;12.68;;;5.78;;
10801;SDS011;5453;50.852;7.102;2023-03-01T09:21:56;12.48;;;5.82;;
10801;SDS011;5453;50.852;7.102;2023-03-01T09:24:29;13.32;;;6.40;;
10801;SDS011;5453;50.852;7.102;2023-03-01T09:27:02;14.20;;;6.00;;
10801;SDS011;5453;50.852;7.102;2023-03-01T09:29:38;12.02;;;5.85;;
10801;SDS011;5453;50.852;7.102;2023-03-01T09:32:10;12.75;;;6.40;;
10801;SDS011;5453;50.852;7.102;2023-03-01T09:34:42;14.05;;;6.25;;
10801;SDS011;5453;50.852;7.102;2023-03-01T09:37:31;12.30;;;6.53;;
10801;SDS011;5453;50.852;7.102;2023-03-01T09:40:08;16.30;;;7.15;;
10801;SDS011;5453;50.852;7.102;2023-03-01T09:42:46;13.88;;;6.55;;
10801;SDS011;5453;50.852;7.102;2023-03-01T09:45:26;13.55;;;6.07;;
10801;SDS011;5453;50.852;7.102;2023-03-01T09:48:02;13.80;;;6.45;;
10801;SDS011;5453;50.852;7.102;2023-03-01T09:50:39;13.93;;;6.32;;
10801;SDS011;5453;50.852;7.102;2023-03-01T09:53:15;14.63;;;6.85;;
10801;SDS011;5453;50.852;7.102;2023-03-01T09:55:51;12.60;;;6.18;;
10801;SDS011;5453;50.852;7.102;2023-03-01T09:58:38;14.70;;;6.55;;
10801;SDS011;5453;50.852;7.102;2023-03-01T10:01:29;11.90;;;6.00;;
10801;SDS011;5453;50.852;7.102;2023-03-01T10:04:09;11.77;;;6.00;;
10801;SDS011;5453;50.852;7.102;2023-03-01T10:07:06;12.13;;;6.03;;
10801;SDS011;5453;50.852;7.102;2023-03-01T10:09:51;11.95;;;5.18;;
10801;SDS011;5453;50.852;7.102;2023-03-01T10:12:26;11.35;;;5.28;;
10801;SDS011;5453;50.852;7.102;2023-03-01T10:15:13;11.80;;;5.82;;
10801;SDS011;5453;50.852;7.102;2023-03-01T10:17:50;11.05;;;5.90;;
10801;SDS011;5453;50.852;7.102;2023-03-01T10:20:29;14.15;;;6.50;;
10801;SDS011;5453;50.852;7.102;2023-03-01T10:23:15;12.70;;;6.03;;
10801;SDS011;5453;50.852;7.102;2023-03-01T10:25:51;13.68;;;6.90;;
10801;SDS011;5453;50.852;7.102;2023-03-01T10:28:44;12.93;;;6.28;;
10801;SDS011;5453;50.852;7.102;2023-03-01T10:31:25;12.10;;;5.07;;
10801;SDS011;5453;50.852;7.102;2023-03-01T10:34:11;13.70;;;5.85;;
10801;SDS011;5453;50.852;7.102;2023-03-01T10:36:47;12.13;;;5.78;;
10801;SDS011;5453;50.852;7.102;2023-03-01T10:39:22;12.93;;;5.82;;
10801;SDS011;5453;50.852;7.102;2023-03-01T10:41:57;13.05;;;5.85;;
10801;SDS011;5453;50.852;7.102;2023-03-01T10:44:41;13.43;;;5.80;;
10801;SDS011;5453;50.852;7.102;2023-03-01T10:47:17;11.32;;;5.93;;
10801;SDS011;5453;50.852;7.102;2023-03-01T10:49:54;12.15;;;5.43;;
10801;SDS011;5453;50.852;7.102;2023-03-01T10:52:32;11.85;;;5.40;;
10801;SDS011;5453;50.852;7.102;2023-03-01T10:55:19;12.70;;;5.95;;
10801;SDS011;5453;50.852;7.102;2023-03-01T10:58:08;13.30;;;5.70;;
10801;SDS011;5453;50.852;7.102;2023-03-01T11:00:52;11.38;;;5.13;;
10801;SDS011;5453;50.852;7.102;2023-03-01T11:03:26;11.75;;;5.65;;
10801;SDS011;5453;50.852;7.102;2023-03-01T11:06:03;10.75;;;5.63;;
10801;SDS011;5453;50.852;7.102;2023-03-01T11:08:44;11.18;;;5.30;;
10801;SDS011;5453;50.852;7.102;2023-03-01T11:11:20;11.43;;;6.43;;
10801;SDS011;5453;50.852;7.102;2023-03-01T11:13:58;10.75;;;5.03;;
10801;SDS011;5453;50.852;7.102;2023-03-01T11:16:36;12.70;;;4.75;;
10801;SDS011;5453;50.852;7.102;2023-03-01T11:19:14;11.30;;;5.47;;
10801;SDS011;5453;50.852;7.102;2023-03-01T11:21:53;9.43;;;4.35;;
10801;SDS011;5453;50.852;7.102;2023-03-01T11:24:37;9.65;;;4.50;;
10801;SDS011;5453;50.852;7.102;2023-03-01T11:27:16;10.77;;;5.07;;
10801;SDS011;5453;50.852;7.102;2023-03-01T11:29:54;10.45;;;5.35;;
10801;SDS011;5453;50.852;7.102;2023-03-01T11:32:32;11.32;;;5.70;;
10801;SDS011;5453;50.852;7.102;2023-03-01T11:35:14;12.18;;;5.53;;
10801;SDS011;5453;50.852;7.102;2023-03-01T11:37:55;11.48;;;5.18;;
10801;SDS011;5453;50.852;7.102;2023-03-01T11:40:37;11.27;;;4.60;;
10801;SDS011;5453;50.852;7.102;2023-03-01T11:43:15;11.52;;;5.55;;
10801;SDS011;5453;50.852;7.102;2023-03-01T11:45:58;11.50;;;5.03;;
10801;SDS011;5453;50.852;7.102;2023-03-01T11:49:19;10.35;;;4.65;;
10801;SDS011;5453;50.852;7.102;2023-03-01T11:52:17;10.15;;;4.78;;
10801;SDS011;5453;50.852;7.102;2023-03-01T11:55:11;8.32;;;4.32;;
10801;SDS011;5453;50.852;7.102;2023-03-01T11:58:04;12.77;;;5.18;;
10801;SDS011;5453;50.852;7.102;2023-03-01T12:00:56;10.98;;;6.00;;
10801;SDS011;5453;50.852;7.102;2023-03-01T12:03:51;10.80;;;5.30;;
10801;SDS011;5453;50.852;7.102;2023-03-01T12:06:56;10.10;;;4.55;;
10801;SDS011;5453;50.852;7.102;2023-03-01T12:09:35;20.65;;;8.63;;
10801;SDS011;5453;50.852;7.102;2023-03-01T12:12:27;26.83;;;10.30;;
10801;SDS011;5453;50.852;7.102;2023-03-01T12:15:21;14.80;;;5.60;;
10801;SDS011;5453;50.852;7.102;2023-03-01T12:18:13;12.75;;;5.65;;
10801;SDS011;5453;50.852;7.102;2023-03-01T12:21:07;9.93;;;4.57;;
10801;SDS011;5453;50.852;7.102;2023-03-01T12:27:14;10.40;;;4.82;;
10801;SDS011;5453;50.852;7.102;2023-03-01T12:30:09;12.55;;;5.20;;
10801;SDS011;5453;50.852;7.102;2023-03-01T12:33:03;10.10;;;5.15;;
10801;SDS011;5453;50.852;7.102;2023-03-01T12:35:51;8.45;;;4.25;;
10801;SDS011;5453;50.852;7.102;2023-03-01T12:38:50;10.25;;;5.07;;
10801;SDS011;5453;50.852;7.102;2023-03-01T12:41:37;9.00;;;4.50;;
10801;SDS011;5453;50.852;7.102;2023-03-01T12:44:29;10.43;;;4.28;;
10801;SDS011;5453;50.852;7.102;2023-03-01T12:47:18;9.32;;;4.15;;
10801;SDS011;5453;50.852;7.102;2023-03-01T12:50:02;10.65;;;4.05;;
10801;SDS011;5453;50.852;7.102;2023-03-01T12:52:44;9.23;;;4.03;;
10801;SDS011;5453;50.852;7.102;2023-03-01T12:55:24;9.65;;;4.82;;
10801;SDS011;5453;50.852;7.102;2023-03-01T12:58:03;9.90;;;5.00;;
10801;SDS011;5453;50.852;7.102;2023-03-01T13:00:49;6.40;;;3.50;;
10801;SDS011;5453;50.852;7.102;2023-03-01T13:03:53;8.60;;;4.72;;
10801;SDS011;5453;50.852;7.102;2023-03-01T13:06:42;7.88;;;4.35;;
10801;SDS011;5453;50.852;7.102;2023-03-01T13:09:24;7.45;;;3.72;;
10801;SDS011;5453;50.852;7.102;2023-03-01T13:12:02;8.32;;;4.28;;
10801;SDS011;5453;50.852;7.102;2023-03-01T13:14:35;9.25;;;4.38;;
10801;SDS011;5453;50.852;7.102;2023-03-01T13:17:30;7.40;;;3.58;;
10801;SDS011;5453;50.852;7.102;2023-03-01T13:20:11;6.88;;;3.35;;
10801;SDS011;5453;50.852;7.102;2023-03-01T13:22:48;7.65;;;3.95;;
10801;SDS011;5453;50.852;7.102;2023-03-01T13:26:05;10.52;;;5.15;;
10801;SDS011;5453;50.852;7.102;2023-03-01T13:28:54;24.67;;;9.02;;
10801;SDS011;5453;50.852;7.102;2023-03-01T13:34:40;51.40;;;17.90;;
10801;SDS011;5453;50.852;7.102;2023-03-01T13:37:24;14.43;;;5.75;;
10801;SDS011;5453;50.852;7.102;2023-03-01T13:43:33;12.30;;;5.00;;
10801;SDS011;5453;50.852;7.102;2023-03-01T13:46:09;10.90;;;4.63;;
10801;SDS011;5453;50.852;7.102;2023-03-01T13:48:48;11.02;;;4.15;;
10801;SDS011;5453;50.852;7.102;2023-03-01T13:51:23;9.77;;;4.13;;
10801;SDS011;5453;50.852;7.102;2023-03-01T13:53:58;10.32;;;4.00;;
10801;SDS011;5453;50.852;7.102;2023-03-01T13:56:33;11.82;;;4.70;;
10801;SDS011;5453;50.852;7.102;2023-03-01T13:59:14;9.30;;;3.50;;
10801;SDS011;5453;50.852;7.102;2023-03-01T14:01:51;9.13;;;3.78;;
10801;SDS011;5453;50.852;7.102;2023-03-01T14:04:25;10.60;;;4.82;;
10801;SDS011;5453;50.852;7.102;2023-03-01T14:07:11;10.55;;;4.55;;
10801;SDS011;5453;50.852;7.102;2023-03-01T14:09:44;10.27;;;4.03;;
10801;SDS011;5453;50.852;7.102;2023-03-01T14:12:22;7.13;;;3.75;;
10801;SDS011;5453;50.852;7.102;2023-03-01T14:15:10;8.88;;;3.53;;
10801;SDS011;5453;50.852;7.102;2023-03-01T14:17:52;8.90;;;4.25;;
10801;SDS011;5453;50.852;7.102;2023-03-01T14:20:32;6.25;;;3.20;;
10801;SDS011;5453;50.852;7.102;2023-03-01T14:23:10;6.40;;;3.50;;
10801;SDS011;5453;50.852;7.102;2023-03-01T14:25:46;6.88;;;3.22;;
10801;SDS011;5453;50.852;7.102;2023-03-01T14:28:21;7.40;;;4.00;;
10801;SDS011;5453;50.852;7.102;2023-03-01T14:30:58;8.77;;;4.07;;
10801;SDS011;5453;50.852;7.102;2023-03-01T14:33:32;7.82;;;3.88;;
10801;SDS011;5453;50.852;7.102;2023-03-01T14:36:07;7.38;;;3.88;;
10801;SDS011;5453;50.852;7.102;2023-03-01T14:38:41;9.80;;;3.97;;
10801;SDS011;5453;50.852;7.102;2023-03-01T14:41:17;8.43;;;4.03;;
10801;SDS011;5453;50.852;7.102;2023-03-01T14:43:52;9.80;;;4.05;;
10801;SDS011;5453;50.852;7.102;2023-03-01T14:46:30;6.15;;;3.22;;
10801;SDS011;5453;50.852;7.102;2023-03-01T14:49:07;6.50;;;3.10;;
10801;SDS011;5453;50.852;7.102;2023-03-01T14:51:46;10.13;;;3.65;;
10801;SDS011;5453;50.852;7.102;2023-03-01T14:54:24;7.03;;;3.00;;
10801;SDS011;5453;50.852;7.102;2023-03-01T14:56:59;7.57;;;3.20;;
10801;SDS011;5453;50.852;7.102;2023-03-01T14:59:33;6.15;;;3.30;;
10801;SDS011;5453;50.852;7.102;2023-03-01T15:02:10;5.90;;;4.13;;
10801;SDS011;5453;50.852;7.102;2023-03-01T15:04:48;6.60;;;2.90;;
10801;SDS011;5453;50.852;7.102;2023-03-01T15:07:22;7.20;;;3.13;;
10801;SDS011;5453;50.852;7.102;2023-03-01T15:10:01;7.32;;;3.10;;
10801;SDS011;5453;50.852;7.102;2023-03-01T15:12:38;6.60;;;3.00;;
10801;SDS011;5453;50.852;7.102;2023-03-01T15:18:16;6.40;;;3.50;;
10801;SDS011;5453;50.852;7.102;2023-03-01T15:20:50;9.02;;;4.15;;
10801;SDS011;5453;50.852;7.102;2023-03-01T15:23:24;10.18;;;4.28;;
10801;SDS011;5453;50.852;7.102;2023-03-01T15:25:58;7.45;;;3.60;;
10801;SDS011;5453;50.852;7.102;2023-03-01T15:28:31;8.30;;;3.50;;
10801;SDS011;5453;50.852;7.102;2023-03-01T15:31:12;7.47;;;3.90;;
10801;SDS011;5453;50.852;7.102;2023-03-01T15:33:52;8.90;;;3.90;;
10801;SDS011;5453;50.852;7.102;2023-03-01T15:36:43;8.07;;;3.92;;
10801;SDS011;5453;50.852;7.102;2023-03-01T15:42:35;8.13;;;4.30;;
10801;SDS011;5453;50.852;7.102;2023-03-01T15:45:09;8.40;;;3.83;;
10801;SDS011;5453;50.852;7.102;2023-03-01T15:47:52;7.95;;;3.85;;
10801;SDS011;5453;50.852;7.102;2023-03-01T15:50:29;9.55;;;3.90;;
10801;SDS011;5453;50.852;7.102;2023-03-01T15:53:05;8.15;;;3.63;;
10801;SDS011;5453;50.852;7.102;2023-03-01T15:55:41;8.73;;;3.97;;
10801;SDS011;5453;50.852;7.102;2023-03-01T15:58:15;8.70;;;3.55;;
10801;SDS011;5453;50.852;7.102;2023-03-01T16:00:50;8.45;;;3.70;;
10801;SDS011;5453;50.852;7.102;2023-03-01T16:03:26;7.93;;;3.70;;
10801;SDS011;5453;50.852;7.102;2023-03-01T16:06:00;8.52;;;3.67;;
10801;SDS011;5453;50.852;7.102;2023-03-01T16:08:33;6.88;;;3.60;;
10801;SDS011;5453;50.852;7.102;2023-03-01T16:11:05;7.78;;;3.60;;
10801;SDS011;5453;50.852;7.102;2023-03-01T16:16:19;7.75;;;3.35;;
10801;SDS011;5453;50.852;7.102;2023-03-01T16:18:52;8.73;;;3.58;;
10801;SDS011;5453;50.852;7.102;2023-03-01T16:21:26;7.78;;;3.63;;